createdAt,value
2022-10-20T00:02:00.808Z,64.54
2022-10-20T00:04:29.829Z,64.90
2022-10-20T00:06:57.694Z,64.98
2022-10-20T00:09:25.875Z,65.00
2022-10-20T00:11:55.342Z,64.96
2022-10-20T00:14:23.287Z,64.67
2022-10-20T00:16:51.868Z,64.90
2022-10-20T00:19:19.850Z,64.92
2022-10-20T00:21:47.777Z,64.84
2022-10-20T00:24:15.877Z,64.87
2022-10-20T00:26:43.751Z,65.24
2022-10-20T00:29:13.083Z,65.06
2022-10-20T00:31:41.023Z,65.08
2022-10-20T00:34:09.090Z,65.00
2022-10-20T00:36:37.030Z,65.04
2022-10-20T00:39:06.710Z,65.40
2022-10-20T00:41:35.555Z,65.25
2022-10-20T00:44:04.983Z,65.04
2022-10-20T00:46:40.003Z,65.35
2022-10-20T00:49:14.251Z,65.15
2022-10-20T00:51:43.015Z,65.32
2022-10-20T00:54:14.911Z,65.33
2022-10-20T00:56:45.390Z,65.63
2022-10-20T00:59:16.106Z,65.54
2022-10-20T01:01:46.788Z,65.32
2022-10-20T01:04:15.226Z,65.80
2022-10-20T01:06:43.076Z,65.60
2022-10-20T01:09:11.479Z,65.48
2022-10-20T01:11:50.422Z,65.85
2022-10-20T01:14:34.249Z,65.90
2022-10-20T01:17:13.814Z,65.97
2022-10-20T01:20:22.797Z,65.75
2022-10-20T01:23:12.115Z,65.78
2022-10-20T01:25:55.964Z,66.00
2022-10-20T01:28:33.724Z,66.09
2022-10-20T01:31:06.195Z,66.06
2022-10-20T01:33:41.395Z,65.93
2022-10-20T01:36:15.421Z,66.11
2022-10-20T01:38:48.713Z,66.23
2022-10-20T01:41:23.357Z,66.32
2022-10-20T01:43:54.660Z,66.43
2022-10-20T01:46:26.108Z,66.27
2022-10-20T01:48:55.603Z,65.95
2022-10-20T01:51:23.590Z,66.55
2022-10-20T01:53:51.445Z,65.98
2022-10-20T01:56:27.018Z,66.15
2022-10-20T01:59:20.728Z,66.26
2022-10-20T02:02:06.795Z,66.19
2022-10-20T02:04:49.672Z,66.11
2022-10-20T02:07:24.667Z,66.71
2022-10-20T02:09:56.924Z,66.32
2022-10-20T02:12:28.839Z,66.44
2022-10-20T02:14:59.353Z,66.73
2022-10-20T02:17:28.084Z,66.47
2022-10-20T02:19:58.053Z,66.76
2022-10-20T02:22:27.178Z,66.86
2022-10-20T02:24:55.172Z,66.68
2022-10-20T02:27:28.241Z,66.88
2022-10-20T02:30:02.030Z,66.95
2022-10-20T02:32:33.653Z,66.73
2022-10-20T02:35:06.645Z,66.97
2022-10-20T02:37:35.768Z,66.70
2022-10-20T02:40:05.148Z,66.98
2022-10-20T02:42:33.151Z,67.00
2022-10-20T02:45:02.745Z,67.08
2022-10-20T02:47:30.634Z,67.25
2022-10-20T02:49:58.612Z,67.18
2022-10-20T02:52:26.571Z,67.15
2022-10-20T02:54:54.511Z,66.91
2022-10-20T02:57:22.410Z,67.02
2022-10-20T02:59:50.309Z,67.21
2022-10-20T03:02:19.731Z,67.17
2022-10-20T03:04:47.574Z,67.48
2022-10-20T03:07:15.831Z,67.45
2022-10-20T03:09:44.224Z,67.35
2022-10-20T03:12:12.399Z,67.42
2022-10-20T03:14:42.233Z,67.83
2022-10-20T03:17:10.135Z,67.54
2022-10-20T03:19:39.562Z,67.48
2022-10-20T03:22:07.485Z,67.50
2022-10-20T03:24:35.308Z,67.58
2022-10-20T03:27:03.268Z,67.39
2022-10-20T03:29:31.147Z,67.86
2022-10-20T03:31:59.058Z,67.56
2022-10-20T03:34:27.336Z,67.74
2022-10-20T03:36:56.579Z,67.46
2022-10-20T03:39:24.496Z,67.90
2022-10-20T03:41:54.366Z,67.72
2022-10-20T03:44:22.346Z,67.79
2022-10-20T03:46:50.401Z,67.99
2022-10-20T03:49:18.414Z,67.87
2022-10-20T03:51:46.325Z,67.79
2022-10-20T03:54:15.677Z,68.04
2022-10-20T03:56:43.742Z,68.17
2022-10-20T03:59:12.436Z,68.25
2022-10-20T04:01:40.435Z,67.89
2022-10-20T04:04:08.421Z,68.24
2022-10-20T04:06:36.374Z,68.02
2022-10-20T04:09:04.969Z,67.97
2022-10-20T04:11:34.544Z,67.82
2022-10-20T04:14:06.274Z,68.17
2022-10-20T04:16:42.082Z,68.16
2022-10-20T04:19:10.206Z,68.17
2022-10-20T04:21:38.255Z,68.40
2022-10-20T04:24:07.374Z,68.62
2022-10-20T04:26:36.661Z,68.02
2022-10-20T04:29:04.840Z,68.66
2022-10-20T04:31:32.660Z,68.56
2022-10-20T04:34:00.565Z,68.62
2022-10-20T04:36:28.652Z,68.53
2022-10-20T04:38:56.810Z,68.57
2022-10-20T04:41:24.645Z,68.45
2022-10-20T04:43:54.146Z,68.71
2022-10-20T04:46:22.563Z,68.77
2022-10-20T04:48:50.500Z,68.41
2022-10-20T04:51:21.288Z,68.84
2022-10-20T04:53:49.458Z,68.81
2022-10-20T04:56:19.462Z,68.72
2022-10-20T04:58:49.178Z,68.62
2022-10-20T05:01:20.042Z,68.95
2022-10-20T05:03:48.185Z,68.64
2022-10-20T05:06:18.081Z,68.75
2022-10-20T05:08:48.143Z,69.05
2022-10-20T05:11:18.309Z,68.89
2022-10-20T05:13:46.324Z,69.16
2022-10-20T05:16:14.998Z,68.91
2022-10-20T05:18:45.470Z,68.64
2022-10-20T05:21:19.061Z,68.88
2022-10-20T05:23:47.379Z,69.26
2022-10-20T05:26:17.511Z,68.88
2022-10-20T05:28:47.045Z,69.30
2022-10-20T05:31:16.581Z,69.20
2022-10-20T05:33:47.851Z,69.40
2022-10-20T05:36:19.449Z,69.51
2022-10-20T05:38:50.334Z,69.08
2022-10-20T05:41:20.270Z,69.44
2022-10-20T05:43:50.260Z,69.46
2022-10-20T05:46:19.026Z,69.17
2022-10-20T05:48:48.789Z,69.46
2022-10-20T05:51:19.087Z,69.33
2022-10-20T05:53:48.133Z,69.65
2022-10-20T05:56:23.173Z,69.67
2022-10-20T05:58:51.182Z,69.53
2022-10-20T06:01:23.956Z,69.43
2022-10-20T06:03:54.898Z,69.62
2022-10-20T06:06:25.709Z,69.69
2022-10-20T06:08:54.261Z,69.80
2022-10-20T06:11:23.200Z,69.94
2022-10-20T06:13:53.026Z,69.68
2022-10-20T06:16:23.521Z,69.71
2022-10-20T06:18:53.833Z,70.16
2022-10-20T06:21:23.568Z,70.05
2022-10-20T06:23:52.169Z,69.99
2022-10-20T06:26:22.599Z,70.22
2022-10-20T06:28:52.502Z,70.07
2022-10-20T06:31:22.218Z,70.38
2022-10-20T06:33:50.459Z,70.31
2022-10-20T06:36:21.178Z,70.42
2022-10-20T06:38:49.875Z,70.57
2022-10-20T06:41:18.840Z,70.86
2022-10-20T06:43:46.720Z,70.71
2022-10-20T06:46:17.410Z,70.61
2022-10-20T06:48:45.799Z,70.98
2022-10-20T06:51:16.015Z,70.71
2022-10-20T06:53:46.944Z,71.23
2022-10-20T06:56:16.752Z,70.68
2022-10-20T06:58:47.382Z,70.95
2022-10-20T07:01:17.060Z,71.14
2022-10-20T07:03:46.669Z,71.38
2022-10-20T07:06:16.406Z,71.10
2022-10-20T07:08:45.748Z,71.04
2022-10-20T07:11:15.595Z,71.72
2022-10-20T07:13:44.180Z,71.34
2022-10-20T07:16:13.982Z,71.48
2022-10-20T07:21:19.306Z,71.86
2022-10-20T07:23:50.002Z,71.69
2022-10-20T07:26:20.172Z,72.20
2022-10-20T07:28:53.333Z,72.20
2022-10-20T07:31:25.541Z,72.34
2022-10-20T07:34:07.112Z,73.19
2022-10-20T07:36:43.797Z,72.67
2022-10-20T07:39:14.474Z,73.32
2022-10-20T07:41:44.133Z,73.11
2022-10-20T07:44:12.036Z,73.58
2022-10-20T07:46:39.922Z,73.58
2022-10-20T07:51:55.711Z,73.49
2022-10-20T07:54:25.231Z,73.90
2022-10-20T07:56:53.252Z,74.03
2022-10-20T07:59:21.232Z,74.35
2022-10-20T08:01:49.473Z,74.11
2022-10-20T08:04:17.344Z,74.31
2022-10-20T08:06:47.200Z,73.76
2022-10-20T08:09:15.162Z,73.76
2022-10-20T08:11:44.537Z,74.23
2022-10-20T08:14:15.922Z,74.78
2022-10-20T08:16:47.633Z,74.46
2022-10-20T08:19:23.891Z,74.50
2022-10-20T08:21:54.008Z,74.68
2022-10-20T08:24:21.974Z,74.84
2022-10-20T08:26:51.462Z,74.88
2022-10-20T08:29:19.403Z,74.95
2022-10-20T08:31:47.297Z,74.82
2022-10-20T08:34:15.185Z,75.05
2022-10-20T08:36:43.238Z,74.97
2022-10-20T08:39:11.058Z,74.94
2022-10-20T08:42:03.187Z,74.70
2022-10-20T08:44:35.038Z,75.16
2022-10-20T08:47:05.851Z,74.72
2022-10-20T08:49:36.233Z,75.11
2022-10-20T08:52:04.991Z,74.78
2022-10-20T08:54:35.485Z,75.00
2022-10-20T08:57:03.429Z,75.06
2022-10-20T08:59:39.197Z,75.02
2022-10-20T09:02:16.251Z,75.05
2022-10-20T09:04:50.177Z,75.16
2022-10-20T09:07:26.602Z,74.94
2022-10-20T09:10:02.974Z,75.01
2022-10-20T09:12:32.860Z,74.84
2022-10-20T09:15:02.161Z,75.03
2022-10-20T09:17:30.314Z,74.94
2022-10-20T09:20:01.248Z,74.81
2022-10-20T09:22:35.675Z,74.61
2022-10-20T09:25:06.114Z,74.63
2022-10-20T09:27:36.629Z,74.39
2022-10-20T09:30:18.385Z,74.47
2022-10-20T09:32:48.147Z,74.62
2022-10-20T09:35:23.143Z,74.43
2022-10-20T09:38:01.484Z,74.25
2022-10-20T09:43:00.951Z,73.79
2022-10-20T09:45:32.715Z,73.90
2022-10-20T09:48:06.569Z,74.13
2022-10-20T09:50:38.315Z,73.79
2022-10-20T09:53:16.792Z,73.69
2022-10-20T09:55:49.068Z,73.25
2022-10-20T09:58:23.157Z,73.30
2022-10-20T10:01:01.490Z,72.93
2022-10-20T10:03:30.046Z,72.97
2022-10-20T10:06:00.378Z,72.59
2022-10-20T10:08:42.002Z,72.78
2022-10-20T10:11:18.011Z,72.38
2022-10-20T10:13:47.778Z,72.09
2022-10-20T10:16:21.995Z,71.86
2022-10-20T10:18:58.934Z,71.63
2022-10-20T10:21:27.534Z,71.69
2022-10-20T10:23:57.572Z,71.64
2022-10-20T10:32:26.468Z,70.47
2022-10-20T10:35:18.389Z,70.43
2022-10-20T10:37:48.532Z,70.31
2022-10-20T10:40:19.887Z,69.85
2022-10-20T10:43:12.406Z,69.69
2022-10-20T10:45:52.748Z,69.51
2022-10-20T10:48:54.751Z,69.30
2022-10-20T10:51:32.376Z,69.33
2022-10-20T10:54:13.946Z,68.78
2022-10-20T10:56:48.797Z,68.55
2022-10-20T10:59:27.760Z,68.37
2022-10-20T11:02:18.460Z,68.21
2022-10-20T11:05:21.969Z,67.94
2022-10-20T11:07:59.068Z,67.55
2022-10-20T11:10:36.270Z,67.54
2022-10-20T11:13:23.072Z,66.93
2022-10-20T11:16:03.236Z,66.77
2022-10-20T11:18:55.098Z,66.64
2022-10-20T11:21:36.256Z,66.54
2022-10-20T11:24:18.781Z,66.33
2022-10-20T11:26:50.564Z,66.32
2022-10-20T11:29:23.017Z,65.79
2022-10-20T11:31:56.389Z,65.80
2022-10-20T11:34:31.312Z,65.46
2022-10-20T11:37:04.851Z,65.16
2022-10-20T11:39:46.801Z,64.96
2022-10-20T11:42:25.175Z,64.73
2022-10-20T11:44:55.724Z,64.70
2022-10-20T11:47:31.878Z,64.49
2022-10-20T11:50:05.045Z,64.33
2022-10-20T11:53:04.529Z,64.39
2022-10-20T11:55:44.561Z,63.93
2022-10-20T11:58:31.000Z,63.94
2022-10-20T12:01:18.533Z,63.63
2022-10-20T12:04:26.347Z,63.25
2022-10-20T12:07:21.780Z,63.15
2022-10-20T12:10:23.881Z,62.96
2022-10-20T12:12:59.679Z,62.87
2022-10-20T12:15:28.862Z,62.80
2022-10-20T12:18:00.847Z,62.83
2022-10-20T12:21:03.509Z,62.70
2022-10-20T12:24:05.040Z,62.47
2022-10-20T12:27:06.144Z,62.55
2022-10-20T12:29:54.646Z,62.40
2022-10-20T12:33:04.528Z,62.22
2022-10-20T12:36:02.032Z,61.92
2022-10-20T12:38:32.097Z,61.87
2022-10-20T12:41:02.390Z,61.81
2022-10-20T12:43:48.959Z,61.70
2022-10-20T12:46:24.454Z,61.66
2022-10-20T12:48:57.635Z,61.60
2022-10-20T12:51:34.622Z,61.36
2022-10-20T12:54:07.346Z,61.44
2022-10-20T12:56:39.741Z,61.19
2022-10-20T12:59:36.108Z,61.07
2022-10-20T13:02:41.243Z,61.05
2022-10-20T13:05:42.977Z,60.91
2022-10-20T13:08:24.404Z,60.88
2022-10-20T13:10:54.250Z,60.67
2022-10-20T13:13:45.105Z,60.31
2022-10-20T13:16:19.648Z,60.48
2022-10-20T13:18:50.794Z,60.42
2022-10-20T13:21:26.532Z,60.08
2022-10-20T13:24:03.852Z,59.81
2022-10-20T13:26:39.383Z,60.06
2022-10-20T13:29:30.179Z,59.92
2022-10-20T13:32:12.496Z,59.77
2022-10-20T13:34:46.810Z,59.35
2022-10-20T13:37:47.825Z,59.22
2022-10-20T13:40:25.485Z,59.13
2022-10-20T13:43:05.591Z,59.00
2022-10-20T13:45:47.783Z,58.90
2022-10-20T13:48:31.509Z,58.74
2022-10-20T13:51:03.647Z,58.79
2022-10-20T13:53:35.144Z,58.40
2022-10-20T13:56:07.723Z,58.25
2022-10-20T13:58:36.337Z,58.20
2022-10-20T14:01:07.012Z,58.33
2022-10-20T14:03:43.173Z,58.18
2022-10-20T14:06:32.488Z,58.12
2022-10-20T14:09:10.643Z,57.78
2022-10-20T14:11:41.872Z,57.95
2022-10-20T14:14:23.832Z,57.66
2022-10-20T14:16:55.689Z,57.40
2022-10-20T14:19:28.883Z,57.14
2022-10-20T14:22:11.229Z,57.34
2022-10-20T14:24:44.422Z,56.66
2022-10-20T14:27:20.527Z,56.43
2022-10-20T14:29:49.454Z,56.40
2022-10-20T14:32:20.186Z,56.04
2022-10-20T14:34:59.838Z,55.94
2022-10-20T14:37:32.700Z,55.19
2022-10-20T14:40:02.519Z,55.82
2022-10-20T14:42:34.052Z,55.82
2022-10-20T14:45:04.292Z,55.62
2022-10-20T14:47:39.496Z,55.70
2022-10-20T14:50:15.241Z,55.79
2022-10-20T14:52:43.807Z,55.32
2022-10-20T14:55:28.778Z,54.91
2022-10-20T14:57:58.301Z,55.06
2022-10-20T15:00:35.470Z,55.02
2022-10-20T15:03:08.121Z,54.87
2022-10-20T15:05:41.356Z,54.77
2022-10-20T15:08:22.242Z,54.88
2022-10-20T15:10:50.308Z,54.37
2022-10-20T15:13:29.196Z,54.69
2022-10-20T15:15:58.610Z,54.36
2022-10-20T15:18:28.362Z,54.06
2022-10-20T15:20:57.595Z,54.52
2022-10-20T15:23:27.172Z,53.86
2022-10-20T15:26:11.103Z,53.77
2022-10-20T15:28:51.034Z,54.11
2022-10-20T15:31:22.425Z,53.93
2022-10-20T15:33:50.652Z,54.09
2022-10-20T15:36:22.403Z,54.18
2022-10-20T15:38:50.800Z,53.73
2022-10-20T15:41:21.591Z,53.92
2022-10-20T15:43:50.768Z,53.55
2022-10-20T15:46:19.803Z,53.73
2022-10-20T15:48:48.584Z,53.77
2022-10-20T15:51:22.309Z,53.77
2022-10-20T15:53:50.280Z,53.74
2022-10-20T15:56:21.344Z,53.68
2022-10-20T15:58:51.241Z,53.66
2022-10-20T16:01:19.971Z,53.25
2022-10-20T16:03:48.774Z,53.28
2022-10-20T16:06:18.800Z,53.48
2022-10-20T16:08:48.516Z,53.35
2022-10-20T16:11:18.112Z,53.03
2022-10-20T16:13:46.308Z,53.66
2022-10-20T16:16:18.202Z,53.47
2022-10-20T16:18:46.674Z,53.50
2022-10-20T16:21:14.791Z,53.42
2022-10-20T16:23:44.903Z,53.26
2022-10-20T16:26:15.202Z,53.61
2022-10-20T16:28:43.329Z,53.17
2022-10-20T16:31:14.193Z,53.36
2022-10-20T16:33:43.744Z,53.18
2022-10-20T16:36:14.818Z,53.24
2022-10-20T16:38:43.678Z,53.21
2022-10-20T16:41:13.426Z,53.25
2022-10-20T16:43:42.994Z,53.17
2022-10-20T16:46:12.282Z,53.30
2022-10-20T16:48:42.781Z,53.12
2022-10-20T16:51:15.311Z,53.08
2022-10-20T16:53:43.481Z,53.01
2022-10-20T16:56:15.163Z,53.32
2022-10-20T16:58:48.698Z,53.08
2022-10-20T17:01:18.949Z,52.93
2022-10-20T17:03:48.262Z,52.95
2022-10-20T17:06:19.906Z,53.19
2022-10-20T17:08:48.234Z,53.22
2022-10-20T17:11:18.263Z,53.29
2022-10-20T17:13:46.263Z,52.98
2022-10-20T17:16:16.568Z,53.09
2022-10-20T17:18:45.692Z,53.23
2022-10-20T17:21:15.466Z,53.01
2022-10-20T17:23:46.135Z,53.12
2022-10-20T17:26:16.804Z,53.00
2022-10-20T17:28:45.535Z,53.06
2022-10-20T17:33:46.153Z,53.19
2022-10-20T17:36:14.666Z,53.17
2022-10-20T17:38:44.810Z,53.15
2022-10-20T17:41:15.224Z,53.18
2022-10-20T17:43:43.380Z,52.99
2022-10-20T17:46:15.411Z,53.00
2022-10-20T17:48:43.409Z,53.17
2022-10-20T17:51:13.297Z,53.16
2022-10-20T17:53:43.679Z,53.04
2022-10-20T17:56:16.417Z,53.12
2022-10-20T17:58:46.072Z,53.28
2022-10-20T18:01:23.384Z,53.51
2022-10-20T18:03:56.403Z,53.03
2022-10-20T18:06:31.175Z,53.40
2022-10-20T18:09:03.194Z,53.34
2022-10-20T18:11:35.394Z,53.14
2022-10-20T18:14:04.134Z,53.28
2022-10-20T18:16:37.447Z,53.01
2022-10-20T18:19:16.374Z,53.25
2022-10-20T18:21:44.738Z,53.18
2022-10-20T18:24:17.544Z,53.29
2022-10-20T18:26:48.069Z,53.41
2022-10-20T18:29:17.730Z,53.15
2022-10-20T18:31:48.009Z,53.53
2022-10-20T18:34:20.821Z,53.61
2022-10-20T18:36:49.959Z,53.68
2022-10-20T18:39:18.007Z,53.40
2022-10-20T18:41:47.723Z,53.91
2022-10-20T18:44:18.022Z,53.82
2022-10-20T18:46:47.299Z,53.72
2022-10-20T18:49:19.733Z,53.40
2022-10-20T18:51:48.583Z,53.87
2022-10-20T18:54:18.491Z,53.83
2022-10-20T18:56:48.290Z,53.41
2022-10-20T18:59:17.279Z,53.40
2022-10-20T19:01:45.996Z,53.93
2022-10-20T19:04:14.680Z,53.71
2022-10-20T19:06:44.177Z,54.03
2022-10-20T19:09:14.764Z,54.00
2022-10-20T19:11:44.259Z,53.66
2022-10-20T19:14:14.126Z,53.82
2022-10-20T19:16:46.286Z,54.31
2022-10-20T19:19:15.001Z,54.09
2022-10-20T19:21:43.261Z,53.73
2022-10-20T19:24:14.641Z,53.93
2022-10-20T19:26:52.529Z,54.20
2022-10-20T19:29:26.729Z,53.90
2022-10-20T19:31:57.055Z,54.20
2022-10-20T19:34:28.301Z,54.62
2022-10-20T19:37:00.320Z,53.96
2022-10-20T19:39:30.362Z,54.46
2022-10-20T19:42:01.323Z,54.26
2022-10-20T19:44:34.486Z,54.00
2022-10-20T19:47:05.112Z,54.59
2022-10-20T19:49:37.747Z,54.41
2022-10-20T19:52:06.776Z,54.24
2022-10-20T19:54:35.039Z,54.37
2022-10-20T19:57:03.020Z,54.40
2022-10-20T19:59:32.483Z,54.72
2022-10-20T20:02:00.666Z,54.72
2022-10-20T20:04:28.814Z,54.74
2022-10-20T20:07:01.762Z,54.74
2022-10-20T20:09:30.834Z,54.49
2022-10-20T20:11:59.388Z,54.73
2022-10-20T20:14:29.592Z,54.65
2022-10-20T20:16:59.357Z,54.68
2022-10-20T20:19:27.441Z,54.98
2022-10-20T20:21:55.322Z,55.11
2022-10-20T20:24:38.107Z,55.17
2022-10-20T20:27:12.146Z,54.97
2022-10-20T20:29:40.248Z,55.17
2022-10-20T20:32:11.799Z,54.72
2022-10-20T20:34:42.673Z,55.01
2022-10-20T20:37:10.747Z,54.91
2022-10-20T20:39:38.588Z,55.15
2022-10-20T20:42:06.603Z,55.22
2022-10-20T20:44:34.586Z,55.55
2022-10-20T20:47:02.630Z,55.13
2022-10-20T20:49:31.912Z,55.27
2022-10-20T20:51:59.728Z,55.73
2022-10-20T20:54:30.781Z,55.35
2022-10-20T20:57:01.295Z,55.67
2022-10-20T20:59:29.165Z,55.92
2022-10-20T21:01:57.011Z,55.96
2022-10-20T21:04:28.306Z,55.71
2022-10-20T21:07:03.042Z,56.18
2022-10-20T21:09:31.661Z,56.14
2022-10-20T21:11:59.576Z,56.14
2022-10-20T21:14:27.819Z,56.15
2022-10-20T21:16:55.831Z,56.17
2022-10-20T21:19:24.126Z,56.18
2022-10-20T21:21:57.191Z,56.45
2022-10-20T21:24:27.168Z,56.72
2022-10-20T21:26:55.730Z,56.72
2022-10-20T21:29:23.759Z,56.35
2022-10-20T21:31:51.983Z,56.68
2022-10-20T21:34:20.028Z,56.56
2022-10-20T21:36:48.118Z,56.81
2022-10-20T21:39:17.075Z,56.81
2022-10-20T21:41:47.493Z,56.91
2022-10-20T21:44:15.857Z,56.76
2022-10-20T21:46:47.594Z,57.10
2022-10-20T21:49:18.009Z,57.37
2022-10-20T21:51:48.099Z,57.39
2022-10-20T21:54:17.950Z,57.28
2022-10-20T21:56:48.062Z,57.56
2022-10-20T21:59:19.221Z,57.54
2022-10-20T22:01:47.686Z,57.66
2022-10-20T22:04:16.049Z,57.76
2022-10-20T22:06:44.475Z,57.75
2022-10-20T22:09:14.760Z,57.97
2022-10-20T22:11:56.887Z,58.14
2022-10-20T22:14:25.011Z,58.03
2022-10-20T22:16:55.410Z,58.03
2022-10-20T22:19:24.288Z,58.14
2022-10-20T22:21:53.843Z,58.04
2022-10-20T22:24:22.662Z,58.59
2022-10-20T22:26:53.495Z,58.19
2022-10-20T22:34:53.827Z,58.85
2022-10-20T22:37:21.744Z,58.53
2022-10-20T22:39:49.655Z,59.00
2022-10-20T22:42:21.302Z,59.05
2022-10-20T22:44:52.021Z,59.19
2022-10-20T22:47:20.002Z,59.25
2022-10-20T22:49:47.907Z,58.88
2022-10-20T22:52:16.427Z,59.39
2022-10-20T22:54:44.316Z,59.38
2022-10-20T22:57:12.334Z,59.41
2022-10-20T22:59:43.945Z,60.12
2022-10-20T23:02:11.806Z,59.95
2022-10-20T23:04:39.771Z,59.71
2022-10-20T23:07:07.547Z,59.85
2022-10-20T23:09:35.832Z,60.34
2022-10-20T23:12:03.821Z,59.87
2022-10-20T23:14:31.753Z,60.36
2022-10-20T23:17:01.045Z,60.18
2022-10-20T23:19:28.972Z,60.23
2022-10-20T23:21:56.951Z,60.19
2022-10-20T23:24:24.827Z,60.43
2022-10-20T23:26:52.848Z,60.79
2022-10-20T23:29:21.114Z,60.93
2022-10-20T23:31:48.965Z,60.30
2022-10-20T23:34:18.175Z,61.14
2022-10-20T23:36:46.344Z,61.08
2022-10-20T23:39:14.322Z,60.55
2022-10-20T23:41:42.229Z,61.41
2022-10-20T23:44:10.165Z,61.12
2022-10-20T23:46:38.347Z,61.35
2022-10-20T23:49:08.156Z,61.25
2022-10-20T23:51:37.651Z,60.78
2022-10-20T23:54:05.516Z,61.23
2022-10-20T23:56:33.710Z,60.96
2022-10-20T23:59:01.591Z,61.29
